Tiffin, Ohio
Current Conditions -  °F | °C
As of 3:53 PM on Tuesday 21 Oct 2014 (Local Time) from KFDY Reporting Station
Overcast Overcast  
Wind Chill: 45°   Ceiling: 3100
Heat Index: 49°   Visibility: 10mi
Dew Point: 40°   Wind: 9mph
Humidity: 71%   Direction: 350°N
Pressure: 30.07"   Gusts: NA
Location:  41.12°N, 83.18°W
Report Text: KFDY 211953Z AUTO 35008KT 10SM FEW019 FEW027 OVC031 09/04 A3007 RMK AO2 SLP181 T00940044
Loading
Personal Weather Stations






























Interactive Weather Map New forecast layout! Learn more

10-Day Weather Forecast

Advertisements
Track Severe Weather on mobile